createdAt,value
2024-04-01T00:01:18.359Z,7.30
2024-04-01T00:03:59.064Z,7.70
2024-04-01T00:06:31.530Z,7.80
2024-04-01T00:09:03.950Z,8.40
2024-04-01T00:11:36.256Z,7.80
2024-04-01T00:14:10.707Z,7.10
2024-04-01T00:16:44.392Z,8.60
2024-04-01T00:19:16.721Z,8.70
2024-04-01T00:21:49.023Z,8.60
2024-04-01T00:24:21.897Z,8.20
2024-04-01T00:26:54.187Z,8.60
2024-04-01T00:29:26.458Z,7.20
2024-04-01T00:31:58.683Z,6.30
2024-04-01T00:34:33.456Z,7.50
2024-04-01T00:37:06.327Z,8.20
2024-04-01T00:39:38.685Z,6.30
2024-04-01T00:42:11.031Z,7.80
2024-04-01T00:44:45.777Z,7.10
2024-04-01T00:47:18.189Z,8.20
2024-04-01T00:49:50.759Z,7.90
2024-04-01T00:52:23.447Z,7.60
2024-04-01T00:54:56.568Z,7.60
2024-04-01T00:57:29.287Z,6.50
2024-04-01T01:00:01.801Z,7.50
2024-04-01T01:02:34.375Z,7.30
2024-04-01T01:05:08.267Z,7.90
2024-04-01T01:07:40.964Z,6.20
2024-04-01T01:10:13.811Z,6.80
2024-04-01T01:12:46.421Z,7.10
2024-04-01T01:15:21.334Z,7.10
2024-04-01T01:17:53.780Z,7.30
2024-04-01T01:20:26.681Z,7.30
2024-04-01T01:22:58.986Z,6.20
2024-04-01T01:25:31.406Z,7.20
2024-04-01T01:28:03.692Z,6.80
2024-04-01T01:30:36.834Z,7.00
2024-04-01T01:33:10.949Z,6.30
2024-04-01T01:35:45.800Z,6.30
2024-04-01T01:38:19.574Z,6.00
2024-04-01T01:40:53.526Z,5.60
2024-04-01T01:43:25.867Z,4.30
2024-04-01T01:45:58.199Z,5.80
2024-04-01T01:48:31.059Z,5.00
2024-04-01T01:51:03.422Z,6.70
2024-04-01T01:53:35.997Z,6.00
2024-04-01T01:56:09.160Z,5.60
2024-04-01T01:58:41.378Z,5.20
2024-04-01T02:01:13.609Z,5.10
2024-04-01T02:03:46.510Z,7.00
2024-04-01T02:06:19.371Z,4.90
2024-04-01T02:08:51.796Z,6.10
2024-04-01T02:11:26.753Z,6.40
2024-04-01T02:13:58.988Z,6.40
2024-04-01T02:16:31.324Z,5.20
2024-04-01T02:19:03.597Z,5.30
2024-04-01T02:21:35.942Z,5.40
2024-04-01T02:24:08.847Z,6.70
2024-04-01T02:26:41.224Z,6.40
2024-04-01T02:29:13.506Z,6.10
2024-04-01T02:31:45.984Z,6.10
2024-04-01T02:34:18.460Z,4.60
2024-04-01T02:36:50.645Z,6.10
2024-04-01T02:39:22.914Z,5.00
2024-04-01T02:41:55.766Z,5.10
2024-04-01T02:44:28.137Z,6.10
2024-04-01T02:47:00.393Z,6.70
2024-04-01T02:49:32.744Z,5.80
2024-04-01T02:52:05.686Z,5.50
2024-04-01T02:54:38.071Z,5.80
2024-04-01T02:57:12.831Z,5.90
2024-04-01T02:59:48.183Z,5.30
2024-04-01T03:02:20.494Z,4.90
2024-04-01T03:04:54.912Z,4.40
2024-04-01T03:07:27.373Z,4.70
2024-04-01T03:10:00.787Z,4.20
2024-04-01T03:12:33.171Z,4.90
2024-04-01T03:15:06.114Z,4.40
2024-04-01T03:17:41.091Z,4.20
2024-04-01T03:20:14.815Z,5.30
2024-04-01T03:22:47.067Z,4.50
2024-04-01T03:25:19.923Z,5.50
2024-04-01T03:27:52.301Z,4.00
2024-04-01T03:30:24.711Z,4.40
2024-04-01T03:32:59.644Z,3.90
2024-04-01T03:35:31.937Z,3.70
2024-04-01T03:38:04.242Z,4.50
2024-04-01T03:40:41.201Z,4.50
2024-04-01T03:43:13.650Z,4.30
2024-04-01T03:45:46.207Z,5.00
2024-04-01T03:48:18.492Z,4.00
2024-04-01T03:50:51.483Z,3.80
2024-04-01T03:53:23.967Z,3.70
2024-04-01T03:55:56.275Z,4.60
2024-04-01T03:58:28.538Z,4.00
2024-04-01T04:01:00.785Z,3.90
2024-04-01T04:03:33.126Z,4.80
2024-04-01T04:06:05.972Z,4.00
2024-04-01T04:08:38.535Z,4.30
2024-04-01T04:11:12.569Z,4.50
2024-04-01T04:13:47.728Z,4.20
2024-04-01T04:16:20.039Z,3.60
2024-04-01T04:18:54.759Z,3.70
2024-04-01T04:21:27.164Z,4.10
2024-04-01T04:23:59.404Z,5.20
2024-04-01T04:26:32.904Z,4.70
2024-04-01T04:29:05.378Z,4.70
2024-04-01T04:31:37.946Z,4.60
2024-04-01T04:34:11.794Z,4.80
2024-04-01T04:36:44.110Z,5.40
2024-04-01T04:39:25.332Z,4.00
2024-04-01T04:41:58.884Z,3.80
2024-04-01T04:44:31.668Z,3.70
2024-04-01T04:47:03.980Z,4.20
2024-04-01T04:49:36.252Z,4.70
2024-04-01T04:52:09.177Z,3.60
2024-04-01T04:54:42.454Z,3.20
2024-04-01T04:57:15.201Z,3.80
2024-04-01T04:59:49.324Z,3.30
2024-04-01T05:02:21.711Z,3.30
2024-04-01T05:04:53.984Z,3.80
2024-04-01T05:07:26.300Z,8.70
2024-04-01T05:09:58.518Z,6.60
2024-04-01T05:12:31.351Z,3.50
2024-04-01T05:15:06.890Z,3.90
2024-04-01T05:17:39.478Z,3.80
2024-04-01T05:20:15.074Z,3.80
2024-04-01T05:22:49.647Z,3.40
2024-04-01T05:25:25.578Z,3.70
2024-04-01T05:28:00.176Z,4.10
2024-04-01T05:30:32.560Z,3.40
2024-04-01T05:33:05.075Z,3.50
2024-04-01T05:35:38.630Z,4.50
2024-04-01T05:38:10.993Z,7.00
2024-04-01T05:40:43.430Z,6.10
2024-04-01T05:43:15.849Z,4.70
2024-04-01T05:45:50.969Z,3.80
2024-04-01T05:48:23.401Z,3.70
2024-04-01T05:50:56.036Z,4.20
2024-04-01T05:53:28.357Z,3.50
2024-04-01T05:56:04.305Z,3.90
2024-04-01T05:58:36.931Z,4.00
2024-04-01T06:01:09.373Z,4.50
2024-04-01T06:03:41.681Z,3.80
2024-04-01T06:06:14.173Z,4.10
2024-04-01T06:08:47.034Z,3.00
2024-04-01T06:11:19.409Z,4.20
2024-04-01T06:13:51.809Z,4.80
2024-04-01T06:16:24.129Z,4.70
2024-04-01T06:18:56.408Z,4.50
2024-04-01T06:21:32.486Z,5.50
2024-04-01T06:24:05.226Z,5.50
2024-04-01T06:26:38.055Z,5.00
2024-04-01T06:29:10.369Z,5.60
2024-04-01T06:31:43.272Z,5.20
2024-04-01T06:34:15.612Z,4.70
2024-04-01T06:36:48.112Z,4.90
2024-04-01T06:39:21.200Z,4.10
2024-04-01T06:41:56.183Z,4.30
2024-04-01T06:44:28.549Z,5.00
2024-04-01T06:47:00.973Z,4.10
2024-04-01T06:49:33.368Z,4.10
2024-04-01T06:52:06.391Z,4.20
2024-04-01T06:54:41.312Z,4.20
2024-04-01T06:57:16.860Z,4.10
2024-04-01T06:59:49.267Z,5.70
2024-04-01T07:02:21.656Z,5.80
2024-04-01T07:04:53.991Z,5.30
2024-04-01T07:07:26.359Z,3.60
2024-04-01T07:09:59.034Z,4.60
2024-04-01T07:12:32.253Z,4.40
2024-04-01T07:15:04.682Z,5.30
2024-04-01T07:17:37.001Z,5.30
2024-04-01T07:20:10.534Z,9.20
2024-04-01T07:22:43.051Z,5.70
2024-04-01T07:25:15.380Z,5.50
2024-04-01T07:27:48.115Z,4.50
2024-04-01T07:30:20.540Z,4.10
2024-04-01T07:32:54.999Z,6.00
2024-04-01T07:35:27.519Z,4.60
2024-04-01T07:37:59.899Z,4.80
2024-04-01T07:40:32.451Z,5.30
2024-04-01T07:43:04.818Z,4.40
2024-04-01T07:45:37.075Z,4.30
2024-04-01T07:48:13.914Z,5.20
2024-04-01T07:50:46.146Z,5.10
2024-04-01T07:53:20.270Z,4.90
2024-04-01T07:55:53.608Z,5.00
2024-04-01T07:58:26.838Z,4.70
2024-04-01T08:01:00.313Z,4.90
2024-04-01T08:03:32.795Z,7.50
2024-04-01T08:06:05.173Z,5.60
2024-04-01T08:08:37.391Z,5.00
2024-04-01T08:11:12.265Z,6.10
2024-04-01T08:13:44.541Z,5.40
2024-04-01T08:16:16.953Z,5.20
2024-04-01T08:18:49.186Z,5.00
2024-04-01T08:21:21.920Z,4.90
2024-04-01T08:23:54.442Z,4.70
2024-04-01T08:26:26.870Z,5.00
2024-04-01T08:28:59.187Z,5.40
2024-04-01T08:31:31.581Z,5.20
2024-04-01T08:34:06.507Z,4.60
2024-04-01T08:36:38.843Z,4.80
2024-04-01T08:39:13.388Z,5.00
2024-04-01T08:41:55.946Z,5.50
2024-04-01T08:44:30.792Z,4.70
2024-04-01T08:47:05.170Z,6.40
2024-04-01T08:49:47.217Z,5.50
2024-04-01T08:52:24.139Z,5.00
2024-04-01T08:54:57.000Z,5.90
2024-04-01T08:57:30.040Z,6.00
2024-04-01T09:00:04.025Z,6.20
2024-04-01T09:02:36.346Z,6.30
2024-04-01T09:05:09.656Z,6.90
2024-04-01T09:07:44.307Z,5.90
2024-04-01T09:10:20.887Z,6.70
2024-04-01T09:12:56.367Z,6.70
2024-04-01T09:15:29.292Z,6.30
2024-04-01T09:18:05.388Z,6.70
2024-04-01T09:20:38.016Z,8.40
2024-04-01T09:23:11.255Z,7.40
2024-04-01T09:25:43.769Z,6.40
2024-04-01T09:28:17.074Z,8.00
2024-04-01T09:30:49.610Z,6.20
2024-04-01T09:33:22.076Z,6.20
2024-04-01T09:35:55.400Z,6.70
2024-04-01T09:38:27.699Z,6.80
2024-04-01T09:41:02.051Z,7.50
2024-04-01T09:43:45.845Z,6.90
2024-04-01T09:46:24.652Z,6.30
2024-04-01T09:48:59.888Z,8.70
2024-04-01T09:51:32.491Z,7.40
2024-04-01T09:54:04.820Z,7.30
2024-04-01T09:57:36.388Z,8.10
2024-04-01T10:00:35.556Z,8.00
2024-04-01T10:04:04.725Z,8.40
2024-04-01T10:07:31.825Z,7.90
2024-04-01T10:10:33.541Z,8.40
2024-04-01T10:13:41.846Z,7.70
2024-04-01T10:16:30.666Z,8.90
2024-04-01T10:19:52.107Z,8.70
2024-04-01T10:23:24.274Z,9.10
2024-04-01T10:26:46.054Z,8.90
2024-04-01T10:30:07.957Z,9.10
2024-04-01T10:33:42.964Z,8.00
2024-04-01T10:36:31.334Z,10.20
2024-04-01T10:39:51.957Z,8.20
2024-04-01T10:43:06.621Z,16.40
2024-04-01T10:46:36.235Z,8.40
2024-04-01T10:52:46.770Z,8.70
2024-04-01T10:55:52.294Z,8.50
2024-04-01T10:58:51.530Z,8.40
2024-04-01T11:02:04.630Z,8.10
2024-04-01T11:05:02.806Z,9.10
2024-04-01T11:07:56.076Z,7.90
2024-04-01T11:10:35.540Z,9.10
2024-04-01T11:13:16.276Z,8.90
2024-04-01T11:15:52.326Z,8.80
2024-04-01T11:18:47.797Z,9.40
2024-04-01T11:21:32.861Z,8.20
2024-04-01T11:24:23.100Z,9.00
2024-04-01T11:27:32.235Z,8.50
2024-04-01T11:30:26.764Z,8.30
2024-04-01T11:33:08.921Z,8.80
2024-04-01T11:35:54.918Z,9.20
2024-04-01T11:38:54.321Z,7.40
2024-04-01T11:41:29.463Z,7.80
2024-04-01T11:44:02.670Z,9.10
2024-04-01T11:46:38.435Z,9.10
2024-04-01T11:49:10.805Z,8.80
2024-04-01T11:51:43.476Z,8.10
2024-04-01T11:54:29.725Z,10.00
2024-04-01T11:57:02.007Z,10.30
2024-04-01T11:59:37.467Z,8.40
2024-04-01T12:02:19.672Z,15.50
2024-04-01T12:05:02.035Z,12.50
2024-04-01T12:07:35.485Z,9.20
2024-04-01T12:10:15.308Z,9.10
2024-04-01T12:12:49.276Z,8.60
2024-04-01T12:15:26.548Z,9.00
2024-04-01T12:17:58.868Z,9.10
2024-04-01T12:20:39.408Z,8.50
2024-04-01T12:23:13.282Z,7.90
2024-04-01T12:25:45.641Z,8.10
2024-04-01T12:28:19.240Z,8.20
2024-04-01T12:30:59.697Z,7.60
2024-04-01T12:33:37.932Z,7.40
2024-04-01T12:36:14.800Z,7.90
2024-04-01T12:38:51.226Z,7.90
2024-04-01T12:41:28.721Z,7.30
2024-04-01T12:44:02.023Z,7.10
2024-04-01T12:46:36.750Z,7.00
2024-04-01T12:49:18.426Z,6.90
2024-04-01T12:51:51.946Z,6.60
2024-04-01T12:54:55.808Z,7.00
2024-04-01T12:58:05.624Z,8.60
2024-04-01T13:00:45.401Z,7.10
2024-04-01T13:03:50.490Z,7.10
2024-04-01T13:06:49.439Z,6.80
2024-04-01T13:09:29.085Z,8.50
2024-04-01T13:12:15.917Z,11.20
2024-04-01T13:15:12.942Z,13.00
2024-04-01T13:18:12.051Z,7.70
2024-04-01T13:21:00.029Z,7.00
2024-04-01T13:23:36.837Z,10.30
2024-04-01T13:26:18.014Z,9.10
2024-04-01T13:28:58.431Z,6.90
2024-04-01T13:31:40.580Z,11.30
2024-04-01T13:34:30.617Z,7.80
2024-04-01T13:40:12.066Z,21.80
2024-04-01T13:43:05.806Z,6.40
2024-04-01T13:45:53.727Z,7.10
2024-04-01T13:48:52.637Z,7.10
2024-04-01T13:51:38.308Z,6.10
2024-04-01T13:54:23.279Z,6.40
2024-04-01T13:57:32.169Z,7.00
2024-04-01T14:00:14.575Z,6.10
2024-04-01T14:03:02.203Z,6.90
2024-04-01T14:06:11.017Z,6.80
2024-04-01T14:08:51.671Z,7.00
2024-04-01T14:11:40.379Z,6.60
2024-04-01T14:14:23.926Z,6.40
2024-04-01T14:17:04.604Z,6.90
2024-04-01T14:19:51.355Z,5.70
2024-04-01T14:22:26.633Z,6.60
2024-04-01T14:25:04.352Z,7.10
2024-04-01T14:27:36.860Z,6.20
2024-04-01T14:30:11.721Z,7.20
2024-04-01T14:32:45.406Z,7.30
2024-04-01T14:35:18.143Z,6.70
2024-04-01T14:37:54.177Z,7.50
2024-04-01T14:40:26.987Z,6.00
2024-04-01T14:42:59.779Z,6.10
2024-04-01T14:45:33.390Z,6.20
2024-04-01T14:48:06.549Z,6.90
2024-04-01T14:50:39.221Z,5.90
2024-04-01T14:53:12.784Z,6.40
2024-04-01T14:55:46.173Z,5.50
2024-04-01T14:58:20.837Z,8.00
2024-04-01T15:00:56.184Z,6.30
2024-04-01T15:03:31.179Z,5.40
2024-04-01T15:06:04.256Z,6.10
2024-04-01T15:08:39.964Z,6.90
2024-04-01T15:11:12.433Z,6.40
2024-04-01T15:13:47.794Z,6.60
2024-04-01T15:16:20.487Z,7.40
2024-04-01T15:18:54.081Z,5.50
2024-04-01T15:21:28.194Z,6.80
2024-04-01T15:24:00.980Z,7.80
2024-04-01T15:26:34.590Z,6.40
2024-04-01T15:29:07.118Z,7.50
2024-04-01T15:31:40.705Z,7.10
2024-04-01T15:34:16.014Z,12.30
2024-04-01T15:36:49.012Z,8.50
2024-04-01T15:39:23.984Z,6.50
2024-04-01T15:41:57.021Z,6.60
2024-04-01T15:44:35.785Z,6.80
2024-04-01T15:47:09.204Z,7.30
2024-04-01T15:49:44.177Z,6.90
2024-04-01T15:52:18.712Z,7.40
2024-04-01T15:54:51.384Z,7.00
2024-04-01T15:57:25.348Z,7.10
2024-04-01T16:00:01.810Z,7.80
2024-04-01T16:02:45.465Z,8.30
2024-04-01T16:05:19.702Z,7.20
2024-04-01T16:07:52.883Z,7.10
2024-04-01T16:10:26.468Z,7.00
2024-04-01T16:13:02.028Z,8.60
2024-04-01T16:15:38.208Z,11.40
2024-04-01T16:18:15.310Z,10.60
2024-04-01T16:20:48.998Z,9.80
2024-04-01T16:23:27.152Z,11.20
2024-04-01T16:26:01.844Z,9.90
2024-04-01T16:28:35.141Z,9.20
2024-04-01T16:31:10.237Z,5.30
2024-04-01T16:33:42.765Z,4.60
2024-04-01T16:36:31.568Z,3.70
2024-04-01T16:39:10.827Z,3.50
2024-04-01T16:41:44.942Z,3.70
2024-04-01T16:44:17.345Z,3.20
2024-04-01T16:46:49.682Z,2.90
2024-04-01T16:49:22.380Z,3.10
2024-04-01T16:51:54.869Z,2.90
2024-04-01T16:54:27.775Z,2.40
2024-04-01T16:57:00.152Z,2.60
2024-04-01T16:59:35.898Z,3.30
2024-04-01T17:02:11.563Z,2.70
2024-04-01T17:04:45.405Z,2.60
2024-04-01T17:07:17.846Z,2.50
2024-04-01T17:09:52.387Z,2.60
2024-04-01T17:12:24.707Z,2.50
2024-04-01T17:14:57.197Z,2.70
2024-04-01T17:17:29.827Z,1.90
2024-04-01T17:20:06.099Z,2.30
2024-04-01T17:22:41.064Z,2.10
2024-04-01T17:25:19.027Z,2.10
2024-04-01T17:27:52.664Z,5.40
2024-04-01T17:30:25.277Z,6.20
2024-04-01T17:32:58.039Z,3.90
2024-04-01T17:35:30.923Z,3.20
2024-04-01T17:38:05.086Z,3.10
2024-04-01T17:40:38.664Z,2.30
2024-04-01T17:43:11.150Z,2.40
2024-04-01T17:45:43.913Z,2.30
2024-04-01T17:48:16.319Z,2.80
2024-04-01T17:50:49.087Z,2.00
2024-04-01T17:53:23.169Z,2.40
2024-04-01T17:55:57.623Z,2.20
2024-04-01T17:58:31.086Z,2.30
2024-04-01T18:01:04.120Z,2.50
2024-04-01T18:03:36.643Z,3.10
2024-04-01T18:06:10.636Z,2.60
2024-04-01T18:08:43.101Z,2.80
2024-04-01T18:11:19.688Z,2.40
2024-04-01T18:13:52.152Z,3.70
2024-04-01T18:16:24.895Z,2.80
2024-04-01T18:18:57.676Z,2.80
2024-04-01T18:21:30.324Z,2.40
2024-04-01T18:24:05.657Z,2.70
2024-04-01T18:26:38.341Z,2.90
2024-04-01T18:29:10.873Z,2.40
2024-04-01T18:31:47.122Z,2.10
2024-04-01T18:34:25.531Z,2.40
2024-04-01T18:37:15.510Z,2.10
2024-04-01T18:39:56.864Z,2.00
2024-04-01T18:42:35.887Z,2.30
2024-04-01T18:45:10.116Z,2.50
2024-04-01T18:47:45.192Z,2.10
2024-04-01T18:50:29.994Z,2.40
2024-04-01T18:53:03.995Z,2.00
2024-04-01T18:55:36.748Z,2.00
2024-04-01T18:58:11.686Z,2.10
2024-04-01T19:00:44.075Z,2.60
2024-04-01T19:03:16.442Z,2.30
2024-04-01T19:05:48.688Z,2.90
2024-04-01T19:08:20.953Z,2.70
2024-04-01T19:10:53.262Z,2.70
2024-04-01T19:13:26.375Z,2.80
2024-04-01T19:15:58.590Z,2.30
2024-04-01T19:18:30.897Z,2.50
2024-04-01T19:21:03.236Z,2.70
2024-04-01T19:23:35.492Z,2.80
2024-04-01T19:26:07.895Z,2.40
2024-04-01T19:28:41.888Z,2.60
2024-04-01T19:31:14.904Z,3.10
2024-04-01T19:33:51.442Z,2.60
2024-04-01T19:36:23.978Z,2.60
2024-04-01T19:38:57.396Z,2.80
2024-04-01T19:41:29.920Z,2.90
2024-04-01T19:44:02.320Z,3.20
2024-04-01T19:46:35.205Z,3.30
2024-04-01T19:49:08.133Z,2.70
2024-04-01T19:51:40.887Z,2.50
2024-04-01T19:54:16.216Z,3.00
2024-04-01T19:56:49.055Z,2.60
2024-04-01T19:59:24.193Z,3.20
2024-04-01T20:01:57.677Z,2.90
2024-04-01T20:04:30.045Z,2.20
2024-04-01T20:07:03.381Z,2.60
2024-04-01T20:09:36.078Z,2.90
2024-04-01T20:12:11.576Z,2.20
2024-04-01T20:14:45.042Z,2.90
2024-04-01T20:17:18.513Z,2.60
2024-04-01T20:19:51.067Z,2.80
2024-04-01T20:22:25.702Z,2.60
2024-04-01T20:24:58.170Z,2.60
2024-04-01T20:27:33.022Z,2.60
2024-04-01T20:30:07.554Z,2.30
2024-04-01T20:32:40.291Z,2.50
2024-04-01T20:35:12.802Z,2.40
2024-04-01T20:37:45.610Z,2.60
2024-04-01T20:40:20.174Z,2.40
2024-04-01T20:42:52.549Z,2.90
2024-04-01T20:45:29.391Z,2.50
2024-04-01T20:48:02.264Z,2.40
2024-04-01T20:50:35.142Z,2.30
2024-04-01T20:53:27.947Z,2.10
2024-04-01T20:56:02.084Z,1.70
2024-04-01T20:58:35.181Z,1.40
2024-04-01T21:01:09.132Z,1.80
2024-04-01T21:03:41.825Z,1.60
2024-04-01T21:06:20.470Z,1.60
2024-04-01T21:08:53.886Z,1.40
2024-04-01T21:11:26.322Z,1.70
2024-04-01T21:13:58.602Z,1.40
2024-04-01T21:16:30.909Z,2.00
2024-04-01T21:19:03.189Z,1.80
2024-04-01T21:21:35.497Z,1.50
2024-04-01T21:24:09.417Z,1.90
2024-04-01T21:26:41.727Z,1.80
2024-04-01T21:29:14.061Z,1.50
2024-04-01T21:31:46.335Z,2.20
2024-04-01T21:34:18.732Z,1.80
2024-04-01T21:36:51.024Z,1.90
2024-04-01T21:39:23.242Z,1.60
2024-04-01T21:41:55.583Z,1.60
2024-04-01T21:44:27.814Z,1.90
2024-04-01T21:47:00.222Z,1.80
2024-04-01T21:49:32.635Z,1.80
2024-04-01T21:52:05.111Z,1.50
2024-04-01T21:54:37.435Z,1.50
2024-04-01T21:57:09.893Z,2.10
2024-04-01T21:59:42.207Z,2.20
2024-04-01T22:02:14.789Z,1.80
2024-04-01T22:04:47.106Z,1.80
2024-04-01T22:07:20.789Z,1.90
2024-04-01T22:09:53.264Z,1.70
2024-04-01T22:12:25.627Z,1.80
2024-04-01T22:14:57.980Z,2.00
2024-04-01T22:17:30.314Z,1.90
2024-04-01T22:20:03.118Z,1.90
2024-04-01T22:22:36.347Z,1.90
2024-04-01T22:25:11.016Z,2.60
2024-04-01T22:27:43.418Z,2.20
2024-04-01T22:30:16.829Z,2.00
2024-04-01T22:32:49.418Z,1.90
2024-04-01T22:35:21.884Z,1.70
2024-04-01T22:37:54.305Z,1.80
2024-04-01T22:40:26.704Z,2.20
2024-04-01T22:42:59.119Z,2.10
2024-04-01T22:45:31.480Z,1.70
2024-04-01T22:48:04.145Z,1.90
2024-04-01T22:50:36.685Z,2.30
2024-04-01T22:53:10.133Z,2.10
2024-04-01T22:55:42.473Z,1.90
2024-04-01T22:58:14.821Z,1.90
2024-04-01T23:00:47.124Z,2.10
2024-04-01T23:03:19.531Z,1.80
2024-04-01T23:05:52.051Z,1.70
2024-04-01T23:08:24.481Z,2.10
2024-04-01T23:10:56.822Z,2.00
2024-04-01T23:13:29.146Z,1.70
2024-04-01T23:16:01.509Z,2.30
2024-04-01T23:18:33.822Z,2.30
2024-04-01T23:21:14.501Z,2.80
2024-04-01T23:23:47.187Z,2.40
2024-04-01T23:26:19.526Z,2.00
2024-04-01T23:28:54.591Z,2.10
2024-04-01T23:31:26.965Z,2.30
2024-04-01T23:33:59.260Z,2.10
2024-04-01T23:36:31.659Z,1.90
2024-04-01T23:39:04.076Z,2.20
2024-04-01T23:41:36.430Z,2.90
2024-04-01T23:44:08.946Z,2.20
2024-04-01T23:46:41.339Z,2.00
2024-04-01T23:49:13.638Z,2.20
2024-04-01T23:51:45.982Z,2.30
2024-04-01T23:54:18.350Z,2.60
2024-04-01T23:56:50.716Z,2.10
2024-04-01T23:59:23.141Z,2.30
